sensor_id;sensor_type;location;lat;lon;timestamp;pressure;altitude;pressure_sealevel;temperature;humidity
55014;BME280;40916;51.632;5.552;2023-03-18T00:00:33;1003.9551490778571;;;12.42108566976755;0
55014;BME280;40916;51.632;5.552;2023-03-18T00:01:33;1003.9632860824993;;;12.427785252578719;0
55014;BME280;40916;51.632;5.552;2023-03-18T00:02:34;1003.9292870192947;;;12.42108566976755;0
55014;BME280;40916;51.632;5.552;2023-03-18T00:03:34;1003.8960358098005;;;12.42108566976755;0
55014;BME280;40916;51.632;5.552;2023-03-18T00:04:34;1003.892341231569;;;12.42108566976755;0
55014;BME280;40916;51.632;5.552;2023-03-18T00:05:34;1003.9233907799409;;;12.434484439409221;0
55014;BME280;40916;51.632;5.552;2023-03-18T00:06:34;1003.9381695277799;;;12.434484439409221;0
55014;BME280;40916;51.632;5.552;2023-03-18T00:07:34;1003.8265846975402;;;12.427785252578719;0
55014;BME280;40916;51.632;5.552;2023-03-18T00:08:34;1003.7947866362452;;;12.407685315718005;0
55014;BME280;40916;51.632;5.552;2023-03-18T00:09:34;1003.7785072491918;;;12.394283376289696;0
55014;BME280;40916;51.632;5.552;2023-03-18T00:10:34;1003.8154508487754;;;12.394283376289696;0
55014;BME280;40916;51.632;5.552;2023-03-18T00:11:34;1003.7097475253769;;;12.374177492436253;0
55014;BME280;40916;51.632;5.552;2023-03-18T00:12:35;1003.7126847335209;;;12.367474737409221;0
55014;BME280;40916;51.632;5.552;2023-03-18T00:13:35;1003.740718271813;;;12.354068036011295;0
55014;BME280;40916;51.632;5.552;2023-03-18T00:14:35;1003.7465801689293;;;12.340659745343078;0
55014;BME280;40916;51.632;5.552;2023-03-18T00:15:35;1003.699184197266;;;12.313838392295484;0
55014;BME280;40916;51.632;5.552;2023-03-18T00:16:35;1003.7619773044996;;;12.313838392295484;0
55014;BME280;40916;51.632;5.552;2023-03-18T00:17:35;1003.7411884607318;;;12.293718198418865;0
55014;BME280;40916;51.632;5.552;2023-03-18T00:18:35;1003.6960898921025;;;12.287010670457896;0
55014;BME280;40916;51.632;5.552;2023-03-18T00:19:35;1003.738072459897;;;12.266885694856732;0
55014;BME280;40916;51.632;5.552;2023-03-18T00:20:35;1003.7979480973183;;;12.273594418799188;0
55014;BME280;40916;51.632;5.552;2023-03-18T00:21:36;1003.8214491713761;;;12.253467050133455;0
55014;BME280;40916;51.632;5.552;2023-03-18T00:22:36;1003.7895376022932;;;12.233336089114605;0
55014;BME280;40916;51.632;5.552;2023-03-18T00:23:36;1003.7125039304314;;;12.206489213927789;0
55014;BME280;40916;51.632;5.552;2023-03-18T00:24:36;1003.7826681047401;;;12.206489213927789;0
55014;BME280;40916;51.632;5.552;2023-03-18T00:25:36;1003.7744844085507;;;12.199776495414596;0
55014;BME280;40916;51.632;5.552;2023-03-18T00:26:36;1003.8647085748455;;;12.213201532431523;0
55014;BME280;40916;51.632;5.552;2023-03-18T00:27:37;1003.8298763963849;;;12.199776495414596;0
55014;BME280;40916;51.632;5.552;2023-03-18T00:28:36;1003.7905440316824;;;12.179635938588682;0
55014;BME280;40916;51.632;5.552;2023-03-18T00:29:36;1003.7425397583163;;;12.179635938588682;0
55014;BME280;40916;51.632;5.552;2023-03-18T00:30:37;1003.8237777712887;;;12.179635938588682;0
55014;BME280;40916;51.632;5.552;2023-03-18T00:31:37;1003.7720808472162;;;12.179635938588682;0
55014;BME280;40916;51.632;5.552;2023-03-18T00:32:37;1003.837742971219;;;12.172921618807809;0
55014;BME280;40916;51.632;5.552;2023-03-18T00:33:37;1003.8746688257307;;;12.172921618807809;0
55014;BME280;40916;51.632;5.552;2023-03-18T00:34:37;1003.9005169310357;;;12.172921618807809;0
55014;BME280;40916;51.632;5.552;2023-03-18T00:35:37;1003.8574718540613;;;12.152776255224556;0
55014;BME280;40916;51.632;5.552;2023-03-18T00:36:37;1003.8767447201295;;;12.15949177724896;0
55014;BME280;40916;51.632;5.552;2023-03-18T00:37:37;1003.8455826688854;;;12.1460603322058;0
55014;BME280;40916;51.632;5.552;2023-03-18T00:38:38;1003.8254927315139;;;12.132627282691814;0
55014;BME280;40916;51.632;5.552;2023-03-18T00:39:38;1003.9001539023598;;;12.139344008069347;0
55014;BME280;40916;51.632;5.552;2023-03-18T00:40:38;1003.8800594057905;;;12.125910155949754;0
55014;BME280;40916;51.632;5.552;2023-03-18T00:41:38;1003.9235464175804;;;12.11919262771968;0
55014;BME280;40916;51.632;5.552;2023-03-18T00:42:38;1003.952262135195;;;12.112474697878046;0
55014;BME280;40916;51.632;5.552;2023-03-18T00:43:38;1003.986313095601;;;12.11919262771968;0
55014;BME280;40916;51.632;5.552;2023-03-18T00:44:38;1004.0174904721842;;;12.132627282691814;0
55014;BME280;40916;51.632;5.552;2023-03-18T00:45:38;1004.1069238676159;;;12.139344008069347;0
55014;BME280;40916;51.632;5.552;2023-03-18T00:46:38;1004.0240556480109;;;12.125910155949754;0
55014;BME280;40916;51.632;5.552;2023-03-18T00:47:38;1004.0638484516573;;;12.11919262771968;0
55014;BME280;40916;51.632;5.552;2023-03-18T00:48:38;1004.1015921617841;;;12.125910155949754;0
55014;BME280;40916;51.632;5.552;2023-03-18T00:49:38;1004.0831310822726;;;12.125910155949754;0
55014;BME280;40916;51.632;5.552;2023-03-18T00:50:39;1003.9772833446399;;;12.105756366301264;0
55014;BME280;40916;51.632;5.552;2023-03-18T00:51:39;1003.988359496516;;;12.105756366301264;0
55014;BME280;40916;51.632;5.552;2023-03-18T00:52:39;1004.0215879586283;;;12.105756366301264;0
55014;BME280;40916;51.632;5.552;2023-03-18T00:53:39;1004.0113358071915;;;12.112474697878046;0
55014;BME280;40916;51.632;5.552;2023-03-18T00:54:39;1003.9846674457706;;;12.105756366301264;0
55014;BME280;40916;51.632;5.552;2023-03-18T00:55:39;1003.9366707970069;;;12.105756366301264;0
55014;BME280;40916;51.632;5.552;2023-03-18T00:56:39;1003.9149039003167;;;12.078879020168987;0
55014;BME280;40916;51.632;5.552;2023-03-18T00:57:39;1003.9469222553389;;;12.099037632865684;0
55014;BME280;40916;51.632;5.552;2023-03-18T00:58:39;1004.0613741749969;;;12.099037632865684;0
55014;BME280;40916;51.632;5.552;2023-03-18T00:59:40;1003.9821869489871;;;12.085598959923317;0
55014;BME280;40916;51.632;5.552;2023-03-18T01:00:40;1004.0597166416054;;;12.085598959923317;0
55014;BME280;40916;51.632;5.552;2023-03-18T01:01:40;1004.0285184282225;;;12.07215867806078;0
55014;BME280;40916;51.632;5.552;2023-03-18T01:02:40;1004.0925621563799;;;12.112474697878046;0
55014;BME280;40916;51.632;5.552;2023-03-18T01:03:40;1004.0494703746613;;;12.092318497447618;0
55014;BME280;40916;51.632;5.552;2023-03-18T01:04:40;1004.0227977337549;;;12.085598959923317;0
55014;BME280;40916;51.632;5.552;2023-03-18T01:05:40;1004.0855598842446;;;12.085598959923317;0
55014;BME280;40916;51.632;5.552;2023-03-18T01:06:40;1003.9895707269553;;;12.085598959923317;0
55014;BME280;40916;51.632;5.552;2023-03-18T01:07:40;1004.1077112397608;;;12.085598959923317;0
55014;BME280;40916;51.632;5.552;2023-03-18T01:08:41;1004.0707923163019;;;12.085598959923317;0
55014;BME280;40916;51.632;5.552;2023-03-18T01:09:41;1004.0625773066225;;;12.078879020168987;0
55014;BME280;40916;51.632;5.552;2023-03-18T01:10:41;1004.0753139923838;;;12.092318497447618;0
55014;BME280;40916;51.632;5.552;2023-03-18T01:11:41;1004.0182752645603;;;12.078879020168987;0
55014;BME280;40916;51.632;5.552;2023-03-18T01:12:41;1004.0892517765304;;;12.085598959923317;0
55014;BME280;40916;51.632;5.552;2023-03-18T01:13:41;1004.0006463948079;;;12.085598959923317;0
55014;BME280;40916;51.632;5.552;2023-03-18T01:14:41;1004.1122334564791;;;12.092318497447618;0
55014;BME280;40916;51.632;5.552;2023-03-18T01:15:41;1004.021134863405;;;12.07215867806078;0
55014;BME280;40916;51.632;5.552;2023-03-18T01:16:41;1003.9989841718339;;;12.07215867806078;0
55014;BME280;40916;51.632;5.552;2023-03-18T01:17:41;1004.0736528198396;;;12.078879020168987;0
55014;BME280;40916;51.632;5.552;2023-03-18T01:18:42;1003.9353913014098;;;12.065437933474797;0
55014;BME280;40916;51.632;5.552;2023-03-18T01:19:42;1004.076511611242;;;12.07215867806078;0
55014;BME280;40916;51.632;5.552;2023-03-18T01:20:42;1004.0214814300743;;;12.045273283610474;0
55014;BME280;40916;51.632;5.552;2023-03-18T01:21:42;1004.1384363896137;;;12.065437933474797;0
55014;BME280;40916;51.632;5.552;2023-03-18T01:22:42;1004.0456394002379;;;12.03182816903831;0
55014;BME280;40916;51.632;5.552;2023-03-18T01:23:42;1004.1010113060752;;;12.03182816903831;0
55014;BME280;40916;51.632;5.552;2023-03-18T01:24:42;1004.0189556549407;;;12.025105006980983;0
55014;BME280;40916;51.632;5.552;2023-03-18T01:25:42;1004.0550240289082;;;12.01838144157718;0
55014;BME280;40916;51.632;5.552;2023-03-18T01:26:42;1004.0414037756616;;;11.998208324043556;0
55014;BME280;40916;51.632;5.552;2023-03-18T01:27:43;1004.0572982384558;;;11.978031571913537;0
55014;BME280;40916;51.632;5.552;2023-03-18T01:28:43;1004.0785870379045;;;11.971305179600943;0
55014;BME280;40916;51.632;5.552;2023-03-18T01:29:43;1004.0584131290873;;;11.957851181823973;0
55014;BME280;40916;51.632;5.552;2023-03-18T01:30:43;1004.0584131290873;;;11.957851181823973;0
55014;BME280;40916;51.632;5.552;2023-03-18T01:31:43;1004.0308523440636;;;11.944395565679603;0
55014;BME280;40916;51.632;5.552;2023-03-18T01:32:43;1003.9709363242326;;;11.937667150407567;0
55014;BME280;40916;51.632;5.552;2023-03-18T01:33:43;1004.0106679278433;;;11.930938330169091;0
55014;BME280;40916;51.632;5.552;2023-03-18T01:34:44;1004.006109599482;;;11.924209104839196;0
55014;BME280;40916;51.632;5.552;2023-03-18T01:35:44;1004.0401931228342;;;11.930938330169091;0
55014;BME280;40916;51.632;5.552;2023-03-18T01:36:44;1004.0117503753094;;;11.910749438405027;0
55014;BME280;40916;51.632;5.552;2023-03-18T01:37:44;1003.9685340854702;;;11.89055689744092;0
55014;BME280;40916;51.632;5.552;2023-03-18T01:38:44;1004.0744886709223;;;11.910749438405027;0
55014;BME280;40916;51.632;5.552;2023-03-18T01:39:44;1003.9897988291196;;;11.883825238935263;0
55014;BME280;40916;51.632;5.552;2023-03-18T01:40:44;1004.0414626242363;;;11.883825238935263;0
55014;BME280;40916;51.632;5.552;2023-03-18T01:41:44;1003.9502564627702;;;11.863627827110765;0
55014;BME280;40916;51.632;5.552;2023-03-18T01:42:46;1003.9678236069343;;;11.856894543981976;0
55014;BME280;40916;51.632;5.552;2023-03-18T01:43:44;1003.9973440385669;;;11.856894543981976;0
55014;BME280;40916;51.632;5.552;2023-03-18T01:44:45;1003.9892108776442;;;11.823222028782954;0
55014;BME280;40916;51.632;5.552;2023-03-18T01:45:47;1004.0234218204574;;;11.80301363549357;0
55014;BME280;40916;51.632;5.552;2023-03-18T01:46:45;1004.0640076811022;;;11.80301363549357;0
55014;BME280;40916;51.632;5.552;2023-03-18T01:47:45;1004.0862259476056;;;11.776063405859688;0
55014;BME280;40916;51.632;5.552;2023-03-18T01:48:45;1004.0253828731684;;;11.762585843667186;0
55014;BME280;40916;51.632;5.552;2023-03-18T01:49:47;1004.0281634115998;;;11.755846450285343;0
55014;BME280;40916;51.632;5.552;2023-03-18T01:50:46;1004.0484758458123;;;11.742366438318896;0
55014;BME280;40916;51.632;5.552;2023-03-18T01:51:47;1003.9452094727487;;;11.71540151003477;0
55014;BME280;40916;51.632;5.552;2023-03-18T01:52:46;1003.9396810645308;;;11.70191659169226;0
55014;BME280;40916;51.632;5.552;2023-03-18T01:53:46;1003.8944799737121;;;11.668197129620047;0
55014;BME280;40916;51.632;5.552;2023-03-18T01:54:47;1003.9396348210574;;;11.647960533323868;0
55014;BME280;40916;51.632;5.552;2023-03-18T01:55:46;1003.8796204322099;;;11.614224663393333;0
55014;BME280;40916;51.632;5.552;2023-03-18T01:56:46;1003.9818381413273;;;11.580478517871668;0
55014;BME280;40916;51.632;5.552;2023-03-18T01:57:46;1003.9613494095203;;;11.539969557009776;0
55014;BME280;40916;51.632;5.552;2023-03-18T01:58:47;1003.9933957241269;;;11.506200749007917;0
55014;BME280;40916;51.632;5.552;2023-03-18T01:59:46;1003.9654256713821;;;11.465664546699895;0
55014;BME280;40916;51.632;5.552;2023-03-18T02:00:48;1003.9759708388661;;;11.411593097096244;0
55014;BME280;40916;51.632;5.552;2023-03-18T02:01:48;1003.99210179073;;;11.371022088928367;0
55014;BME280;40916;51.632;5.552;2023-03-18T02:02:47;1003.9917628988287;;;11.343966438954844;0
55014;BME280;40916;51.632;5.552;2023-03-18T02:03:46;1004.017197312366;;;11.316904130360605;0
55014;BME280;40916;51.632;5.552;2023-03-18T02:04:48;1004.0241743714961;;;11.289835154846077;0
55014;BME280;40916;51.632;5.552;2023-03-18T02:05:47;1003.8832724600769;;;11.235677169788861;0
55014;BME280;40916;51.632;5.552;2023-03-18T02:06:47;1003.9696390853087;;;11.222133493692986;0
55014;BME280;40916;51.632;5.552;2023-03-18T02:07:47;1004.0101736797179;;;11.222133493692986;0
55014;BME280;40916;51.632;5.552;2023-03-18T02:08:47;1003.9886229197566;;;11.201814840436722;0
55014;BME280;40916;51.632;5.552;2023-03-18T02:09:47;1004.0049541503092;;;11.188266977333587;0
55014;BME280;40916;51.632;5.552;2023-03-18T02:10:47;1003.9502191907624;;;11.167942038665192;0
55014;BME280;40916;51.632;5.552;2023-03-18T02:11:47;1004.0375935051023;;;11.161166220181865;0
55014;BME280;40916;51.632;5.552;2023-03-18T02:12:48;1004.0196831915728;;;11.140836246116177;0
55014;BME280;40916;51.632;5.552;2023-03-18T02:13:47;1004.0296751818635;;;11.134058748118655;0
55014;BME280;40916;51.632;5.552;2023-03-18T02:14:48;1003.9859573566242;;;11.113723732362029;0
55014;BME280;40916;51.632;5.552;2023-03-18T02:15:50;1003.9654018132985;;;11.1001649524074;0
55014;BME280;40916;51.632;5.552;2023-03-18T02:16:49;1003.9948736921625;;;11.1001649524074;0
55014;BME280;40916;51.632;5.552;2023-03-18T02:17:50;1004.0163682620247;;;11.073042341084111;0
55014;BME280;40916;51.632;5.552;2023-03-18T02:18:49;1004.0016331886801;;;11.073042341084111;0
55014;BME280;40916;51.632;5.552;2023-03-18T02:19:51;1003.9810587001137;;;11.059478507609256;0
55014;BME280;40916;51.632;5.552;2023-03-18T02:20:59;1004.0462832792598;;;11.05269595845736;0
55014;BME280;40916;51.632;5.552;2023-03-18T02:21:50;1004.0061949901097;;;11.032345779761023;0
55014;BME280;40916;51.632;5.552;2023-03-18T02:22:49;1004.0077018538509;;;11.018776883276171;0
55014;BME280;40916;51.632;5.552;2023-03-18T02:23:51;1004.0113851871392;;;11.018776883276171;0
55014;BME280;40916;51.632;5.552;2023-03-18T02:24:50;1003.9955612330356;;;11.011991801431243;0
55014;BME280;40916;51.632;5.552;2023-03-18T02:25:51;1004.017660905813;;;11.011991801431243;0
55014;BME280;40916;51.632;5.552;2023-03-18T02:26:51;1004.0287107438152;;;11.011991801431243;0
55014;BME280;40916;51.632;5.552;2023-03-18T02:27:50;1003.9959624952758;;;10.99163401989971;0
55014;BME280;40916;51.632;5.552;2023-03-18T02:28:49;1004.0048151767936;;;10.97806005089133;0
55014;BME280;40916;51.632;5.552;2023-03-18T02:29:49;1003.9900831509254;;;10.97806005089133;0
55014;BME280;40916;51.632;5.552;2023-03-18T02:30:51;1003.9790341327788;;;10.97806005089133;0
55014;BME280;40916;51.632;5.552;2023-03-18T02:31:49;1004.0015076809148;;;10.957695922748453;0
55014;BME280;40916;51.632;5.552;2023-03-18T02:32:49;1004.0320750327917;;;10.964484388923534;0
55014;BME280;40916;51.632;5.552;2023-03-18T02:33:50;1004.0394408305426;;;10.964484388923534;0
55014;BME280;40916;51.632;5.552;2023-03-18T02:34:50;1003.9712959634267;;;10.930537820344263;0
55014;BME280;40916;51.632;5.552;2023-03-18T02:35:50;1004.0132602387914;;;10.916956224660513;0
55014;BME280;40916;51.632;5.552;2023-03-18T02:36:50;1004.090252213169;;;10.937327981866428;0
55014;BME280;40916;51.632;5.552;2023-03-18T02:37:50;1004.1981621792972;;;10.94411771935264;0
55014;BME280;40916;51.632;5.552;2023-03-18T02:38:50;1004.1421484114054;;;10.916956224660513;0
55014;BME280;40916;51.632;5.552;2023-03-18T02:39:50;1004.1716085856924;;;10.916956224660513;0
55014;BME280;40916;51.632;5.552;2023-03-18T02:40:50;1004.1727253774424;;;10.92374723465327;0
55014;BME280;40916;51.632;5.552;2023-03-18T02:41:50;1004.1642435414038;;;10.916956224660513;0
55014;BME280;40916;51.632;5.552;2023-03-18T02:42:51;1004.2438105141533;;;10.930537820344263;0
55014;BME280;40916;51.632;5.552;2023-03-18T02:43:51;1004.1889024642869;;;10.910164790233;0
55014;BME280;40916;51.632;5.552;2023-03-18T02:44:51;1004.236774563333;;;10.910164790233;0
55014;BME280;40916;51.632;5.552;2023-03-18T02:45:54;1004.3472487151023;;;10.910164790233;0
55014;BME280;40916;51.632;5.552;2023-03-18T02:46:52;1004.281276205532;;;10.8897879390112;0
55014;BME280;40916;51.632;5.552;2023-03-18T02:47:51;1004.2606098690761;;;10.876201246915564;0
55014;BME280;40916;51.632;5.552;2023-03-18T02:48:51;1004.2657125603032;;;10.862612853884418;0
55014;BME280;40916;51.632;5.552;2023-03-18T02:49:51;1004.2634441611373;;;10.849022758850495;0
55014;BME280;40916;51.632;5.552;2023-03-18T02:50:51;1004.3532158937995;;;10.83543096074564;0
55014;BME280;40916;51.632;5.552;2023-03-18T02:51:52;1004.3373471914202;;;10.82863442270757;0
55014;BME280;40916;51.632;5.552;2023-03-18T02:52:52;1004.3042108196086;;;10.82863442270757;0
55014;BME280;40916;51.632;5.552;2023-03-18T02:53:52;1004.3852108566686;;;10.82863442270757;0
55014;BME280;40916;51.632;5.552;2023-03-18T02:54:52;1004.3497865985236;;;10.815040067991568;0
55014;BME280;40916;51.632;5.552;2023-03-18T02:55:52;1004.3806264443092;;;10.801444007530332;0
55014;BME280;40916;51.632;5.552;2023-03-18T02:56:52;1004.3990344611766;;;10.801444007530332;0
55014;BME280;40916;51.632;5.552;2023-03-18T02:57:52;1004.4100792727298;;;10.801444007530332;0
55014;BME280;40916;51.632;5.552;2023-03-18T02:58:52;1004.3454075543016;;;10.767446386709295;0
55014;BME280;40916;51.632;5.552;2023-03-18T02:59:52;1004.3147991100499;;;10.760645580957835;0
55014;BME280;40916;51.632;5.552;2023-03-18T03:00:53;1004.3674955329542;;;10.767446386709295;0
55014;BME280;40916;51.632;5.552;2023-03-18T03:01:53;1004.4155511074515;;;10.747042686793794;0
55014;BME280;40916;51.632;5.552;2023-03-18T03:02:53;1004.2907527700634;;;10.706223733333658;0
55014;BME280;40916;51.632;5.552;2023-03-18T03:03:53;1004.4035216042171;;;10.71983176405794;0
55014;BME280;40916;51.632;5.552;2023-03-18T03:05:53;1004.3707060389114;;;10.679002527784434;0
55014;BME280;40916;51.632;5.552;2023-03-18T03:06:54;1004.4148735034677;;;10.679002527784434;0
55014;BME280;40916;51.632;5.552;2023-03-18T03:07:53;1004.4002829701842;;;10.658582118285644;0
55014;BME280;40916;51.632;5.552;2023-03-18T03:08:53;1004.4188009068707;;;10.638157843017968;0
55014;BME280;40916;51.632;5.552;2023-03-18T03:09:54;1004.4324245892307;;;10.610919456264433;0
55014;BME280;40916;51.632;5.552;2023-03-18T03:10:54;1004.4998639701164;;;10.61772969833002;0
55014;BME280;40916;51.632;5.552;2023-03-18T03:11:54;1004.4581851357469;;;10.610919456264433;0
55014;BME280;40916;51.632;5.552;2023-03-18T03:12:54;1004.5109043739257;;;10.61772969833002;0
55014;BME280;40916;51.632;5.552;2023-03-18T03:13:54;1004.497466354298;;;10.60410878372156;0
55014;BME280;40916;51.632;5.552;2023-03-18T03:14:54;1004.5698644484169;;;10.59729768056582;0
55014;BME280;40916;51.632;5.552;2023-03-18T03:15:54;1004.503624954847;;;10.59729768056582;0
55014;BME280;40916;51.632;5.552;2023-03-18T03:16:54;1004.6127485376013;;;10.610919456264433;0
55014;BME280;40916;51.632;5.552;2023-03-18T03:17:54;1004.5502607358386;;;10.59048614666158;0
55014;BME280;40916;51.632;5.552;2023-03-18T03:18:54;1004.6042531564805;;;10.583674181873146;0
55014;BME280;40916;51.632;5.552;2023-03-18T03:19:54;1004.599365297823;;;10.576861786064775;0
55014;BME280;40916;51.632;5.552;2023-03-18T03:20:55;1004.5845843411256;;;10.59729768056582;0
55014;BME280;40916;51.632;5.552;2023-03-18T03:21:55;1004.6643382422253;;;10.59048614666158;0
55014;BME280;40916;51.632;5.552;2023-03-18T03:22:55;1004.7084973077317;;;10.59048614666158;0
55014;BME280;40916;51.632;5.552;2023-03-18T03:23:55;1004.72200889332;;;10.583674181873146;0
55014;BME280;40916;51.632;5.552;2023-03-18T03:24:55;1004.7624874560692;;;10.583674181873146;0
55014;BME280;40916;51.632;5.552;2023-03-18T03:25:55;1004.6619220869577;;;10.576861786064775;0
55014;BME280;40916;51.632;5.552;2023-03-18T03:26:55;1004.6778976855276;;;10.563235700844931;0
55014;BME280;40916;51.632;5.552;2023-03-18T03:27:55;1004.6643912313591;;;10.570048959100657;0
55014;BME280;40916;51.632;5.552;2023-03-18T03:28:55;1004.6827900209438;;;10.570048959100657;0
55014;BME280;40916;51.632;5.552;2023-03-18T03:29:55;1004.6864697792186;;;10.570048959100657;0
55014;BME280;40916;51.632;5.552;2023-03-18T03:30:55;1004.7538632444606;;;10.59729768056582;0
55014;BME280;40916;51.632;5.552;2023-03-18T03:31:56;1004.7183290246949;;;10.583674181873146;0
55014;BME280;40916;51.632;5.552;2023-03-18T03:32:56;1004.7072894195351;;;10.583674181873146;0
55014;BME280;40916;51.632;5.552;2023-03-18T03:33:56;1004.7882465489697;;;10.583674181873146;0
55014;BME280;40916;51.632;5.552;2023-03-18T03:34:56;1004.7735270665966;;;10.583674181873146;0
55014;BME280;40916;51.632;5.552;2023-03-18T03:35:56;1004.7637447305412;;;10.570048959100657;0
55014;BME280;40916;51.632;5.552;2023-03-18T03:36:56;1004.7379864075891;;;10.570048959100657;0
55014;BME280;40916;51.632;5.552;2023-03-18T03:37:56;1004.7195876090586;;;10.570048959100657;0
55014;BME280;40916;51.632;5.552;2023-03-18T03:38:56;1004.6975090547584;;;10.570048959100657;0
55014;BME280;40916;51.632;5.552;2023-03-18T03:39:56;1004.7220541355466;;;10.563235700844931;0
55014;BME280;40916;51.632;5.552;2023-03-18T03:40:57;1004.8042221069885;;;10.570048959100657;0
55014;BME280;40916;51.632;5.552;2023-03-18T03:41:57;1004.7870357686429;;;10.576861786064775;0
55014;BME280;40916;51.632;5.552;2023-03-18T03:42:57;1004.8017550343772;;;10.576861786064775;0
55014;BME280;40916;51.632;5.552;2023-03-18T03:43:57;1004.8165101577072;;;10.556422011161679;0
55014;BME280;40916;51.632;5.552;2023-03-18T03:44:57;1004.7429171147928;;;10.556422011161679;0
55014;BME280;40916;51.632;5.552;2023-03-18T03:45:57;1004.7968941287884;;;10.54960788991492;0
55014;BME280;40916;51.632;5.552;2023-03-18T03:46:57;1004.7000065837401;;;10.542793336968629;0
55014;BME280;40916;51.632;5.552;2023-03-18T03:47:57;1004.8017915453077;;;10.556422011161679;0
55014;BME280;40916;51.632;5.552;2023-03-18T03:48:57;1004.7613153710489;;;10.556422011161679;0
55014;BME280;40916;51.632;5.552;2023-03-18T03:49:57;1004.7649950226579;;;10.556422011161679;0
55014;BME280;40916;51.632;5.552;2023-03-18T03:50:58;1004.7686746743863;;;10.556422011161679;0
55014;BME280;40916;51.632;5.552;2023-03-18T03:51:58;1004.7343066476445;;;10.570048959100657;0
55014;BME280;40916;51.632;5.552;2023-03-18T03:52:58;1004.7404526614569;;;10.563235700844931;0
55014;BME280;40916;51.632;5.552;2023-03-18T03:53:58;1004.7429171147928;;;10.556422011161679;0
55014;BME280;40916;51.632;5.552;2023-03-18T03:54:58;1004.7024409615256;;;10.556422011161679;0
55014;BME280;40916;51.632;5.552;2023-03-18T03:55:58;1004.7944322398235;;;10.556422011161679;0
55014;BME280;40916;51.632;5.552;2023-03-18T03:56:58;1004.83490842589;;;10.556422011161679;0
55014;BME280;40916;51.632;5.552;2023-03-18T03:57:58;1004.7760339782005;;;10.556422011161679;0
55014;BME280;40916;51.632;5.552;2023-03-18T03:58:58;1004.766238329153;;;10.542793336968629;0
55014;BME280;40916;51.632;5.552;2023-03-18T03:59:58;1004.8165101577072;;;10.556422011161679;0
55014;BME280;40916;51.632;5.552;2023-03-18T04:00:59;1004.6926475033017;;;10.542793336968629;0
55014;BME280;40916;51.632;5.552;2023-03-18T04:01:59;1004.8165101577072;;;10.556422011161679;0
55014;BME280;40916;51.632;5.552;2023-03-18T04:02:59;1004.7527569145556;;;10.529162935433003;0
55014;BME280;40916;51.632;5.552;2023-03-18T04:03:59;1004.7331224516164;;;10.542793336968629;0
55014;BME280;40916;51.632;5.552;2023-03-18T04:04:59;1004.7772769571452;;;10.542793336968629;0
55014;BME280;40916;51.632;5.552;2023-03-18T04:05:59;1004.7637952135277;;;10.529162935433003;0
55014;BME280;40916;51.632;5.552;2023-03-18T04:06:59;1004.8337044652756;;;10.529162935433003;0
55014;BME280;40916;51.632;5.552;2023-03-18T04:07:59;1004.8373839007708;;;10.529162935433003;0
55014;BME280;40916;51.632;5.552;2023-03-18T04:08:59;1004.8692731426553;;;10.522347086571319;0
55014;BME280;40916;51.632;5.552;2023-03-18T04:09:59;1004.7969105362139;;;10.508714091978899;0
55014;BME280;40916;51.632;5.552;2023-03-18T04:11:00;1004.830023974324;;;10.508714091978899;0
55014;BME280;40916;51.632;5.552;2023-03-18T04:12:00;1004.7699263022013;;;10.501896945975464;0
55014;BME280;40916;51.632;5.552;2023-03-18T04:13:00;1004.8533284575706;;;10.515530805465392;0
55014;BME280;40916;51.632;5.552;2023-03-18T04:14:00;1004.7846431625852;;;10.501896945975464;0
55014;BME280;40916;51.632;5.552;2023-03-18T04:15:00;1004.8189861605474;;;10.508714091978899;0
55014;BME280;40916;51.632;5.552;2023-03-18T04:16:00;1004.8177561054246;;;10.501896945975464;0